createdAt,value
2019-04-21T00:00:25.967Z,12.20
2019-04-21T00:02:55.380Z,12.20
2019-04-21T00:05:49.589Z,12.20
2019-04-21T00:08:19.426Z,12.20
2019-04-21T00:10:48.658Z,12.20
2019-04-21T00:13:07.793Z,12.10
2019-04-21T00:15:33.155Z,12.00
2019-04-21T00:18:02.130Z,12.00
2019-04-21T00:20:37.728Z,11.90
2019-04-21T00:23:19.877Z,11.90
2019-04-21T00:25:42.919Z,11.80
2019-04-21T00:28:24.108Z,11.80
2019-04-21T00:30:54.562Z,11.80
2019-04-21T00:33:06.764Z,11.70
2019-04-21T00:35:39.604Z,11.70
2019-04-21T00:41:00.464Z,11.60
2019-04-21T00:43:25.269Z,11.50
2019-04-21T00:45:48.138Z,11.50
2019-04-21T00:48:32.948Z,11.50
2019-04-21T00:51:18.468Z,11.50
2019-04-21T00:53:43.453Z,11.50
2019-04-21T00:56:10.682Z,11.40
2019-04-21T00:58:38.711Z,11.40
2019-04-21T01:01:02.305Z,11.40
2019-04-21T01:03:38.000Z,11.50
2019-04-21T01:06:11.232Z,11.40
2019-04-21T01:08:36.934Z,11.40
2019-04-21T01:11:11.368Z,11.40
2019-04-21T01:13:41.266Z,11.40
2019-04-21T01:16:14.096Z,11.50
2019-04-21T01:18:38.131Z,11.40
2019-04-21T01:20:48.264Z,11.30
2019-04-21T01:23:16.814Z,11.20
2019-04-21T01:26:03.157Z,11.20
2019-04-21T01:28:35.880Z,11.20
2019-04-21T01:31:05.952Z,11.20
2019-04-21T01:36:14.461Z,11.20
2019-04-21T01:38:48.317Z,11.00
2019-04-21T01:41:21.355Z,11.00
2019-04-21T01:43:45.180Z,11.00
2019-04-21T01:46:15.400Z,11.10
2019-04-21T01:48:46.040Z,11.00
2019-04-21T01:51:12.964Z,11.00
2019-04-21T01:53:57.982Z,11.10
2019-04-21T01:56:24.079Z,11.00
2019-04-21T01:58:42.923Z,11.10
2019-04-21T02:01:26.216Z,11.00
2019-04-21T02:04:12.275Z,11.00
2019-04-21T02:06:29.099Z,10.90
2019-04-21T02:08:56.342Z,10.80
2019-04-21T02:11:31.008Z,10.80
2019-04-21T02:14:05.450Z,10.70
2019-04-21T02:16:23.877Z,10.70
2019-04-21T02:18:54.594Z,10.60
2019-04-21T02:21:22.066Z,10.60
2019-04-21T02:23:58.656Z,10.50
2019-04-21T02:26:27.412Z,10.40
2019-04-21T02:29:03.261Z,10.40
2019-04-21T02:31:37.623Z,10.30
2019-04-21T02:34:09.273Z,10.30
2019-04-21T02:39:15.707Z,10.10
2019-04-21T02:41:45.614Z,10.10
2019-04-21T02:44:12.356Z,10.10
2019-04-21T02:49:12.971Z,10.00
2019-04-21T02:56:43.842Z,10.00
2019-04-21T02:59:17.127Z,10.00
2019-04-21T03:01:50.350Z,10.00
2019-04-21T03:06:54.155Z,9.90
2019-04-21T03:09:20.578Z,9.90
2019-04-21T03:11:52.878Z,9.90
2019-04-21T03:14:29.962Z,9.90
2019-04-21T03:16:40.522Z,9.80
2019-04-21T03:19:33.180Z,9.70
2019-04-21T03:21:52.566Z,9.70
2019-04-21T03:24:31.435Z,9.70
2019-04-21T03:27:03.499Z,9.70
2019-04-21T03:29:19.938Z,9.70
2019-04-21T03:32:28.280Z,9.70
2019-04-21T03:39:25.537Z,9.70
2019-04-21T03:42:00.255Z,9.80
2019-04-21T03:44:24.719Z,9.80
2019-04-21T03:46:57.965Z,9.80
2019-04-21T03:49:30.438Z,9.80
2019-04-21T03:51:57.332Z,9.80
2019-04-21T03:54:16.060Z,9.70
2019-04-21T03:57:13.117Z,9.70
2019-04-21T03:59:38.207Z,9.50
2019-04-21T04:02:03.545Z,9.50
2019-04-21T04:04:28.396Z,9.40
2019-04-21T04:07:06.086Z,9.30
2019-04-21T04:09:44.504Z,9.10
2019-04-21T04:14:31.045Z,9.00
2019-04-21T04:17:06.426Z,9.00
2019-04-21T04:19:36.227Z,8.90
2019-04-21T04:22:03.987Z,8.80
2019-04-21T04:24:39.599Z,8.80
2019-04-21T04:31:58.798Z,8.80
2019-04-21T04:37:12.641Z,8.90
2019-04-21T04:42:21.775Z,8.90
2019-04-21T04:49:49.826Z,8.90
2019-04-21T04:57:16.105Z,8.90
2019-04-21T04:59:45.504Z,9.00
2019-04-21T05:02:20.074Z,9.00
2019-04-21T05:07:16.941Z,8.90
2019-04-21T05:09:46.864Z,8.90
2019-04-21T05:12:11.748Z,9.00
2019-04-21T05:17:25.294Z,9.10
2019-04-21T05:19:53.318Z,9.20
2019-04-21T05:22:16.841Z,9.30
2019-04-21T05:24:33.301Z,9.30
2019-04-21T05:27:02.858Z,9.40
2019-04-21T05:29:37.583Z,9.40
2019-04-21T05:32:13.753Z,9.50
2019-04-21T05:34:35.752Z,9.60
2019-04-21T05:37:15.608Z,9.60
2019-04-21T05:39:37.582Z,9.60
2019-04-21T05:42:05.123Z,9.60
2019-04-21T05:44:58.132Z,9.70
2019-04-21T05:47:40.121Z,9.80
2019-04-21T05:50:06.520Z,9.90
2019-04-21T05:52:32.952Z,10.00
2019-04-21T05:55:14.538Z,10.00
2019-04-21T05:57:39.445Z,10.80
2019-04-21T06:00:08.777Z,12.50
2019-04-21T06:02:47.203Z,14.00
2019-04-21T06:05:24.517Z,14.60
2019-04-21T06:07:40.721Z,15.80
2019-04-21T06:10:12.613Z,17.10
2019-04-21T06:12:47.147Z,16.80
2019-04-21T06:15:14.341Z,17.40
2019-04-21T06:17:47.253Z,19.20
2019-04-21T06:20:15.362Z,18.70
2019-04-21T06:22:49.029Z,20.10
2019-04-21T06:27:44.325Z,20.10
2019-04-21T06:30:13.454Z,19.90
2019-04-21T06:33:13.545Z,19.70
2019-04-21T06:35:24.222Z,19.80
2019-04-21T06:37:51.054Z,19.90
2019-04-21T06:42:50.398Z,20.00
2019-04-21T06:45:19.712Z,17.80
2019-04-21T06:47:50.162Z,18.20
2019-04-21T06:50:24.243Z,18.50
2019-04-21T06:55:20.446Z,20.10
2019-04-21T06:57:56.039Z,20.60
2019-04-21T07:00:21.089Z,20.50
2019-04-21T07:03:17.111Z,19.60
2019-04-21T07:08:10.955Z,19.50
2019-04-21T07:10:21.009Z,20.00
2019-04-21T07:12:51.938Z,19.50
2019-04-21T07:15:25.349Z,20.00
2019-04-21T07:17:51.228Z,19.60
2019-04-21T07:20:21.812Z,19.60
2019-04-21T07:22:54.260Z,20.40
2019-04-21T07:25:25.838Z,21.90
2019-04-21T07:27:52.685Z,21.10
2019-04-21T07:30:26.633Z,21.30
2019-04-21T07:32:58.016Z,21.40
2019-04-21T07:35:22.096Z,21.50
2019-04-21T07:37:53.658Z,21.90
2019-04-21T07:40:20.316Z,22.10
2019-04-21T07:42:48.051Z,21.60
2019-04-21T07:45:18.014Z,21.30
2019-04-21T07:47:55.487Z,22.20
2019-04-21T07:50:35.018Z,23.40
2019-04-21T07:53:09.362Z,22.60
2019-04-21T07:58:02.827Z,21.20
2019-04-21T08:00:36.764Z,21.60
2019-04-21T08:05:35.303Z,22.40
2019-04-21T08:07:57.986Z,22.70
2019-04-21T08:10:33.521Z,22.40
2019-04-21T08:13:00.046Z,23.10
2019-04-21T08:15:38.562Z,23.90
2019-04-21T08:18:07.529Z,24.70
2019-04-21T08:20:38.744Z,23.90
2019-04-21T08:23:04.698Z,23.20
2019-04-21T08:25:46.309Z,23.20
2019-04-21T08:28:07.384Z,21.60
2019-04-21T08:30:36.598Z,22.00
2019-04-21T08:33:16.248Z,22.20
2019-04-21T08:38:10.630Z,21.40
2019-04-21T08:40:44.119Z,21.50
2019-04-21T08:43:12.604Z,22.40
2019-04-21T08:45:41.599Z,22.60
2019-04-21T08:48:12.420Z,23.90
2019-04-21T08:50:36.353Z,23.30
2019-04-21T08:53:09.496Z,23.10
2019-04-21T08:55:48.976Z,22.40
2019-04-21T09:00:46.821Z,20.90
2019-04-21T09:03:16.220Z,20.50
2019-04-21T09:05:42.622Z,20.00
2019-04-21T09:08:20.447Z,19.50
2019-04-21T09:10:47.026Z,19.20
2019-04-21T09:13:17.294Z,19.30
2019-04-21T09:15:41.633Z,19.40
2019-04-21T09:18:17.533Z,19.70
2019-04-21T09:20:55.286Z,19.50
2019-04-21T09:23:19.872Z,19.00
2019-04-21T09:28:14.767Z,19.20
2019-04-21T09:30:33.797Z,19.70
2019-04-21T09:33:01.622Z,19.80
2019-04-21T09:35:29.820Z,19.20
2019-04-21T09:38:07.795Z,18.80
2019-04-21T09:40:36.049Z,19.10
2019-04-21T09:43:03.237Z,19.00
2019-04-21T09:45:30.628Z,18.60
2019-04-21T09:48:06.373Z,18.80
2019-04-21T09:50:29.583Z,18.90
2019-04-21T09:53:05.445Z,18.80
2019-04-21T09:55:39.146Z,18.80
2019-04-21T09:58:10.025Z,18.70
2019-04-21T10:00:31.277Z,18.60
2019-04-21T10:03:05.835Z,18.50
2019-04-21T10:05:29.773Z,18.50
2019-04-21T10:07:58.261Z,18.80
2019-04-21T10:10:27.573Z,18.60
2019-04-21T10:12:56.340Z,18.50
2019-04-21T10:15:28.245Z,18.50
2019-04-21T10:17:58.344Z,18.70
2019-04-21T10:20:26.921Z,18.90
2019-04-21T10:22:55.448Z,19.00
2019-04-21T10:25:24.990Z,18.80
2019-04-21T10:27:54.840Z,18.60
2019-04-21T10:30:24.609Z,18.70
2019-04-21T10:32:54.321Z,18.70
2019-04-21T10:35:24.330Z,18.80
2019-04-21T10:38:05.315Z,18.70
2019-04-21T10:40:25.469Z,18.80
2019-04-21T10:42:54.206Z,18.90
2019-04-21T10:45:23.094Z,18.90
2019-04-21T10:47:52.802Z,18.90
2019-04-21T10:50:22.631Z,18.90
2019-04-21T10:52:53.225Z,18.90
2019-04-21T10:55:41.798Z,18.80
2019-04-21T10:57:55.914Z,19.10
2019-04-21T11:00:24.492Z,19.00
2019-04-21T11:02:54.811Z,19.10
2019-04-21T11:05:24.843Z,19.20
2019-04-21T11:08:08.976Z,19.20
2019-04-21T11:10:25.757Z,19.00
2019-04-21T11:12:54.701Z,19.10
2019-04-21T11:15:23.422Z,19.20
2019-04-21T11:17:52.316Z,19.10
2019-04-21T11:20:20.973Z,19.20
2019-04-21T11:22:49.527Z,19.20
2019-04-21T11:25:18.094Z,19.40
2019-04-21T11:27:47.032Z,19.40
2019-04-21T11:30:15.849Z,19.30
2019-04-21T11:32:46.352Z,19.40
2019-04-21T11:35:15.226Z,19.70
2019-04-21T11:37:44.065Z,19.70
2019-04-21T11:40:16.287Z,19.70
2019-04-21T11:42:44.048Z,19.70
2019-04-21T11:45:16.535Z,19.70
2019-04-21T11:47:48.169Z,19.50
2019-04-21T11:50:17.072Z,19.30
2019-04-21T11:52:47.233Z,19.30
2019-04-21T11:55:16.602Z,19.30
2019-04-21T11:57:48.644Z,19.50
2019-04-21T12:00:15.794Z,19.50
2019-04-21T12:02:45.627Z,19.60
2019-04-21T12:05:15.122Z,19.60
2019-04-21T12:07:45.030Z,19.60
2019-04-21T12:10:13.849Z,19.60
2019-04-21T12:12:43.330Z,19.50
2019-04-21T12:15:14.140Z,19.50
2019-04-21T12:17:43.881Z,19.50
2019-04-21T12:20:13.098Z,19.50
2019-04-21T12:22:41.652Z,19.50
2019-04-21T12:25:13.302Z,19.50
2019-04-21T12:27:41.912Z,19.50
2019-04-21T12:30:13.874Z,19.50
2019-04-21T12:32:44.333Z,19.70
2019-04-21T12:35:15.760Z,19.60
2019-04-21T12:37:44.834Z,19.70
2019-04-21T12:40:14.728Z,19.70
2019-04-21T12:42:43.791Z,19.80
2019-04-21T12:45:15.238Z,19.80
2019-04-21T12:47:44.069Z,19.80
2019-04-21T12:50:13.061Z,19.70
2019-04-21T12:52:41.958Z,19.80
2019-04-21T12:55:11.436Z,19.80
2019-04-21T12:57:41.238Z,19.90
2019-04-21T13:00:13.115Z,19.90
2019-04-21T13:02:41.789Z,20.00
2019-04-21T13:05:11.657Z,20.10
2019-04-21T13:07:41.466Z,20.10
2019-04-21T13:10:12.721Z,20.10
2019-04-21T13:12:41.750Z,20.20
2019-04-21T13:15:11.048Z,20.20
2019-04-21T13:17:39.584Z,20.40
2019-04-21T13:20:11.480Z,20.20
2019-04-21T13:22:40.181Z,20.30
2019-04-21T13:25:09.707Z,20.40
2019-04-21T13:27:38.779Z,20.40
2019-04-21T13:30:10.533Z,20.50
2019-04-21T13:32:39.157Z,20.50
2019-04-21T13:35:10.730Z,20.30
2019-04-21T13:37:43.652Z,20.30
2019-04-21T13:40:34.110Z,20.30
2019-04-21T13:42:51.691Z,20.30
2019-04-21T13:45:18.326Z,20.50
2019-04-21T13:47:48.391Z,20.70
2019-04-21T13:50:17.417Z,20.70
2019-04-21T13:52:46.808Z,20.70
2019-04-21T13:55:15.910Z,20.60
2019-04-21T13:57:44.571Z,20.60
2019-04-21T14:00:15.033Z,20.60
2019-04-21T14:02:44.798Z,20.90
2019-04-21T14:05:15.725Z,21.00
2019-04-21T14:07:44.140Z,20.80
2019-04-21T14:10:14.268Z,20.80
2019-04-21T14:12:44.487Z,20.90
2019-04-21T14:15:14.650Z,20.60
2019-04-21T14:17:44.567Z,20.70
2019-04-21T14:20:13.287Z,20.60
2019-04-21T14:22:42.209Z,20.70
2019-04-21T14:25:12.126Z,20.70
2019-04-21T14:27:41.827Z,20.70
2019-04-21T14:30:12.255Z,20.80
2019-04-21T14:32:42.088Z,20.80
2019-04-21T14:35:12.442Z,20.80
2019-04-21T14:37:42.464Z,20.90
2019-04-21T14:40:16.238Z,20.70
2019-04-21T14:42:42.299Z,20.70
2019-04-21T14:45:12.744Z,20.80
2019-04-21T14:47:44.184Z,20.80
2019-04-21T14:50:15.551Z,20.60
2019-04-21T14:52:44.479Z,20.60
2019-04-21T14:55:14.854Z,20.60
2019-04-21T14:57:43.561Z,20.50
2019-04-21T15:00:15.920Z,20.50
2019-04-21T15:02:45.550Z,20.60
2019-04-21T15:05:15.605Z,20.70
2019-04-21T15:07:45.381Z,20.70
2019-04-21T15:10:19.044Z,20.80
2019-04-21T15:12:45.655Z,20.90
2019-04-21T15:15:15.872Z,20.80
2019-04-21T15:17:46.176Z,20.80
2019-04-21T15:20:17.323Z,20.90
2019-04-21T15:22:46.253Z,20.90
2019-04-21T15:25:16.114Z,20.80
2019-04-21T15:27:45.135Z,20.70
2019-04-21T15:30:16.467Z,20.60
2019-04-21T15:32:46.404Z,20.70
2019-04-21T15:35:15.290Z,20.60
2019-04-21T15:37:44.121Z,20.70
2019-04-21T15:40:21.452Z,20.70
2019-04-21T15:42:44.207Z,20.70
2019-04-21T15:45:12.968Z,20.70
2019-04-21T15:47:42.125Z,20.50
2019-04-21T15:50:17.202Z,20.60
2019-04-21T15:52:41.737Z,20.50
2019-04-21T15:55:12.765Z,20.40
2019-04-21T15:57:42.963Z,20.40
2019-04-21T16:00:16.242Z,20.50
2019-04-21T16:02:46.764Z,20.50
2019-04-21T16:05:16.811Z,20.50
2019-04-21T16:07:45.460Z,20.50
2019-04-21T16:10:32.723Z,20.50
2019-04-21T16:12:47.734Z,20.40
2019-04-21T16:15:16.742Z,20.40
2019-04-21T16:17:45.617Z,20.30
2019-04-21T16:20:15.482Z,20.20
2019-04-21T16:25:18.874Z,20.20
2019-04-21T16:27:47.706Z,20.20
2019-04-21T16:30:17.653Z,20.20
2019-04-21T16:32:46.268Z,20.20
2019-04-21T16:35:16.507Z,20.20
2019-04-21T16:37:45.802Z,20.20
2019-04-21T16:40:15.319Z,20.20
2019-04-21T16:42:43.849Z,20.10
2019-04-21T16:45:14.676Z,20.10
2019-04-21T16:47:44.209Z,20.10
2019-04-21T16:50:13.931Z,20.10
2019-04-21T16:52:44.064Z,20.10
2019-04-21T16:55:14.949Z,20.10
2019-04-21T16:57:53.061Z,20.00
2019-04-21T17:00:27.866Z,20.10
2019-04-21T17:02:48.279Z,20.00
2019-04-21T17:05:18.210Z,19.90
2019-04-21T17:07:47.137Z,19.80
2019-04-21T17:10:16.953Z,19.70
2019-04-21T17:12:45.661Z,19.70
2019-04-21T17:15:32.394Z,19.70
2019-04-21T17:18:06.142Z,19.60
2019-04-21T17:20:30.013Z,19.60
2019-04-21T17:22:45.735Z,19.50
2019-04-21T17:25:16.100Z,19.50
2019-04-21T17:27:44.965Z,19.40
2019-04-21T17:30:14.749Z,19.40
2019-04-21T17:32:48.419Z,19.30
2019-04-21T17:35:14.285Z,19.30
2019-04-21T17:37:42.722Z,19.20
2019-04-21T17:40:11.654Z,19.10
2019-04-21T17:42:46.563Z,19.00
2019-04-21T17:45:10.939Z,19.00
2019-04-21T17:47:46.823Z,19.00
2019-04-21T17:50:11.718Z,19.00
2019-04-21T17:52:48.255Z,18.90
2019-04-21T17:55:22.990Z,18.90
2019-04-21T17:58:08.387Z,18.80
2019-04-21T18:00:57.825Z,18.80
2019-04-21T18:03:24.248Z,18.70
2019-04-21T18:05:40.991Z,18.70
2019-04-21T18:08:14.034Z,18.60
2019-04-21T18:10:38.998Z,18.50
2019-04-21T18:13:01.329Z,18.40
2019-04-21T18:15:40.275Z,18.40
2019-04-21T18:17:56.566Z,18.30
2019-04-21T18:20:28.038Z,18.30
2019-04-21T18:23:00.929Z,18.20
2019-04-21T18:25:42.334Z,18.10
2019-04-21T18:28:02.942Z,18.00
2019-04-21T18:30:35.752Z,17.90
2019-04-21T18:33:15.501Z,17.90
2019-04-21T18:35:43.016Z,17.80
2019-04-21T18:38:16.653Z,17.70
2019-04-21T18:40:45.193Z,17.60
2019-04-21T18:43:48.862Z,17.60
2019-04-21T18:46:06.950Z,17.50
2019-04-21T18:48:24.709Z,17.50
2019-04-21T18:50:53.677Z,17.40
2019-04-21T18:53:39.883Z,17.30
2019-04-21T18:55:55.728Z,17.20
2019-04-21T18:58:18.263Z,17.20
2019-04-21T19:00:48.744Z,17.10
2019-04-21T19:03:25.348Z,17.00
2019-04-21T19:05:53.203Z,16.90
2019-04-21T19:08:30.644Z,16.80
2019-04-21T19:11:08.836Z,16.80
2019-04-21T19:13:53.631Z,16.70
2019-04-21T19:16:27.989Z,16.70
2019-04-21T19:18:50.555Z,16.50
2019-04-21T19:21:08.727Z,16.40
2019-04-21T19:23:45.256Z,16.30
2019-04-21T19:26:23.338Z,16.30
2019-04-21T19:28:47.173Z,16.20
2019-04-21T19:31:12.727Z,16.20
2019-04-21T19:33:33.343Z,16.20
2019-04-21T19:35:51.039Z,16.10
2019-04-21T19:38:30.560Z,16.10
2019-04-21T19:41:09.264Z,16.00
2019-04-21T19:43:44.210Z,16.00
2019-04-21T19:46:09.745Z,15.90
2019-04-21T19:48:44.599Z,15.80
2019-04-21T19:51:10.809Z,15.80
2019-04-21T19:53:34.900Z,15.80
2019-04-21T19:55:51.989Z,15.70
2019-04-21T19:58:27.556Z,15.60
2019-04-21T20:00:53.493Z,15.60
2019-04-21T20:03:20.995Z,15.60
2019-04-21T20:06:00.179Z,15.50
2019-04-21T20:08:32.611Z,15.40
2019-04-21T20:11:11.382Z,15.40
2019-04-21T20:13:56.954Z,15.30
2019-04-21T20:16:07.994Z,15.20
2019-04-21T20:18:27.247Z,15.20
2019-04-21T20:20:52.055Z,15.10
2019-04-21T20:23:26.122Z,15.00
2019-04-21T20:25:55.954Z,15.00
2019-04-21T20:28:34.527Z,15.00
2019-04-21T20:31:10.787Z,14.90
2019-04-21T20:38:31.192Z,14.90
2019-04-21T20:41:00.099Z,14.80
2019-04-21T20:43:42.626Z,14.70
2019-04-21T20:46:07.907Z,14.70
2019-04-21T20:48:40.114Z,14.60
2019-04-21T20:51:18.431Z,14.60
2019-04-21T20:53:36.163Z,14.60
2019-04-21T20:56:02.181Z,14.50
2019-04-21T20:58:40.724Z,14.50
2019-04-21T21:01:25.695Z,14.40
2019-04-21T21:03:42.273Z,14.40
2019-04-21T21:06:07.566Z,14.40
2019-04-21T21:08:40.260Z,14.40
2019-04-21T21:11:07.989Z,14.40
2019-04-21T21:13:44.745Z,14.40
2019-04-21T21:16:24.707Z,14.40
2019-04-21T21:21:11.168Z,14.30
2019-04-21T21:23:42.924Z,14.30
2019-04-21T21:28:34.063Z,14.30
2019-04-21T21:31:11.502Z,14.20
2019-04-21T21:33:47.707Z,14.20
2019-04-21T21:36:10.700Z,14.10
2019-04-21T21:38:45.859Z,14.10
2019-04-21T21:41:03.677Z,14.00
2019-04-21T21:43:25.151Z,14.00
2019-04-21T21:45:56.109Z,13.90
2019-04-21T21:48:38.018Z,13.90
2019-04-21T21:51:04.181Z,13.80
2019-04-21T21:53:28.434Z,13.80
2019-04-21T21:55:53.702Z,13.80
2019-04-21T21:58:27.482Z,13.80
2019-04-21T22:00:58.596Z,13.80
2019-04-21T22:03:30.964Z,13.70
2019-04-21T22:06:03.574Z,13.70
2019-04-21T22:08:24.783Z,13.70
2019-04-21T22:10:54.897Z,13.60
2019-04-21T22:13:34.143Z,13.60
2019-04-21T22:15:56.597Z,13.50
2019-04-21T22:18:42.115Z,13.50
2019-04-21T22:21:07.657Z,13.40
2019-04-21T22:23:36.996Z,13.40
2019-04-21T22:25:55.485Z,13.40
2019-04-21T22:28:25.305Z,13.30
2019-04-21T22:30:55.155Z,13.30
2019-04-21T22:33:25.785Z,13.30
2019-04-21T22:36:02.671Z,13.20
2019-04-21T22:38:40.180Z,13.20
2019-04-21T22:41:05.968Z,13.20
2019-04-21T22:43:32.471Z,13.10
2019-04-21T22:45:55.724Z,13.00
2019-04-21T22:48:28.212Z,13.00
2019-04-21T22:50:54.593Z,12.90
2019-04-21T22:53:23.130Z,12.90
2019-04-21T22:55:58.649Z,12.90
2019-04-21T22:58:25.946Z,12.90
2019-04-21T23:00:56.206Z,12.90
2019-04-21T23:03:24.869Z,12.80
2019-04-21T23:05:53.710Z,12.80
2019-04-21T23:08:28.862Z,12.80
2019-04-21T23:10:58.492Z,12.80
2019-04-21T23:13:24.118Z,12.90
2019-04-21T23:15:57.244Z,12.80
2019-04-21T23:18:37.472Z,12.80
2019-04-21T23:21:10.396Z,12.80
2019-04-21T23:23:44.328Z,12.90
2019-04-21T23:26:14.399Z,12.80
2019-04-21T23:28:45.522Z,12.80
2019-04-21T23:31:12.453Z,12.70
2019-04-21T23:33:25.724Z,12.70
2019-04-21T23:36:05.184Z,12.70
2019-04-21T23:38:30.288Z,12.70
2019-04-21T23:40:59.915Z,12.60
2019-04-21T23:43:29.198Z,12.50
2019-04-21T23:45:57.180Z,12.50
2019-04-21T23:48:36.503Z,12.50
2019-04-21T23:51:12.197Z,12.40
2019-04-21T23:53:26.087Z,12.30
2019-04-21T23:55:54.921Z,12.40
2019-04-21T23:58:26.381Z,12.40
